createdAt,value
2023-03-17T00:01:56.123Z,98497.53
2023-03-17T00:04:24.481Z,98501.41
2023-03-17T00:06:51.865Z,98491.44
2023-03-17T00:09:19.903Z,98489.59
2023-03-17T00:11:47.707Z,98490.69
2023-03-17T00:14:14.884Z,98490.88
2023-03-17T00:16:44.128Z,98496.41
2023-03-17T00:19:17.174Z,98498.06
2023-03-17T00:21:45.231Z,98490.88
2023-03-17T00:24:14.870Z,98491.44
2023-03-17T00:26:42.650Z,98502.53
2023-03-17T00:29:09.933Z,98497.94
2023-03-17T00:31:38.163Z,98493.66
2023-03-17T00:34:05.839Z,98497.34
2023-03-17T00:36:34.305Z,98491.44
2023-03-17T00:39:03.996Z,98483.88
2023-03-17T00:41:30.822Z,98476.91
2023-03-17T00:43:57.672Z,98485.56
2023-03-17T00:46:28.551Z,98480.56
2023-03-17T00:48:57.007Z,98481.22
2023-03-17T00:51:23.668Z,98483.25
2023-03-17T00:53:50.442Z,98481.03
2023-03-17T00:56:19.600Z,98496.22
2023-03-17T00:58:49.146Z,98504.69
2023-03-17T01:01:16.397Z,98499.69
2023-03-17T01:03:43.181Z,98501.91
2023-03-17T01:06:12.817Z,98510.63
2023-03-17T01:08:40.923Z,98507.69
2023-03-17T01:11:14.926Z,98499.69
2023-03-17T01:13:41.698Z,98497.28
2023-03-17T01:16:10.732Z,98497.75
2023-03-17T01:18:38.206Z,98500.22
2023-03-17T01:21:05.278Z,98507.84
2023-03-17T01:23:32.678Z,98503.16
2023-03-17T01:25:59.485Z,98501.88
2023-03-17T01:28:26.165Z,98500.88
2023-03-17T01:30:52.882Z,98505.00
2023-03-17T01:33:19.642Z,98494.72
2023-03-17T01:35:46.507Z,98496.34
2023-03-17T01:38:14.184Z,98506.22
2023-03-17T01:40:47.235Z,98506.03
2023-03-17T01:43:27.617Z,98510.16
2023-03-17T01:46:16.216Z,98517.69
2023-03-17T01:49:00.691Z,98517.50
2023-03-17T01:51:38.940Z,98518.78
2023-03-17T01:54:10.646Z,98526.16
2023-03-17T01:56:42.076Z,98526.50
2023-03-17T01:59:13.728Z,98520.34
2023-03-17T02:01:46.130Z,98522.84
2023-03-17T02:04:13.377Z,98520.75
2023-03-17T02:06:55.093Z,98522.31
2023-03-17T02:09:24.465Z,98515.03
2023-03-17T02:11:51.218Z,98518.09
2023-03-17T02:14:17.944Z,98507.59
2023-03-17T02:16:48.621Z,98506.31
2023-03-17T02:19:16.802Z,98514.78
2023-03-17T02:21:47.735Z,98516.41
2023-03-17T02:24:26.578Z,98518.72
2023-03-17T02:26:56.441Z,98515.31
2023-03-17T02:29:23.721Z,98516.59
2023-03-17T02:31:51.237Z,98523.13
2023-03-17T02:34:18.352Z,98513.63
2023-03-17T02:36:46.671Z,98516.50
2023-03-17T02:39:15.139Z,98519.38
2023-03-17T02:41:41.848Z,98520.38
2023-03-17T02:44:08.803Z,98523.41
2023-03-17T02:46:35.787Z,98523.78
2023-03-17T02:49:02.670Z,98526.72
2023-03-17T02:51:29.483Z,98521.66
2023-03-17T02:53:56.308Z,98513.63
2023-03-17T02:56:23.052Z,98513.19
2023-03-17T02:58:49.858Z,98522.66
2023-03-17T03:01:16.737Z,98515.22
2023-03-17T03:03:43.420Z,98520.94
2023-03-17T03:06:10.204Z,98511.47
2023-03-17T03:08:36.914Z,98519.09
2023-03-17T03:11:05.017Z,98517.16
2023-03-17T03:13:32.767Z,98515.13
2023-03-17T03:16:00.178Z,98514.69
2023-03-17T03:18:27.176Z,98526.53
2023-03-17T03:20:54.198Z,98519.94
2023-03-17T03:23:21.014Z,98522.81
2023-03-17T03:25:48.000Z,98526.84
2023-03-17T03:28:14.823Z,98528.59
2023-03-17T03:30:42.559Z,98530.81
2023-03-17T03:33:10.857Z,98537.44
2023-03-17T03:35:37.904Z,98534.94
2023-03-17T03:38:04.633Z,98537.34
2023-03-17T03:40:31.965Z,98533.75
2023-03-17T03:42:58.919Z,98533.00
2023-03-17T03:45:25.951Z,98535.84
2023-03-17T03:47:53.887Z,98529.72
2023-03-17T03:50:22.043Z,98531.16
2023-03-17T03:52:48.967Z,98528.78
2023-03-17T03:55:16.545Z,98529.78
2023-03-17T03:57:44.146Z,98523.56
2023-03-17T04:00:14.138Z,98530.34
2023-03-17T04:02:41.930Z,98527.50
2023-03-17T04:05:09.304Z,98523.81
2023-03-17T04:07:37.165Z,98528.31
2023-03-17T04:10:04.228Z,98529.44
2023-03-17T04:12:31.422Z,98533.91
2023-03-17T04:14:58.092Z,98546.41
2023-03-17T04:17:24.781Z,98548.91
2023-03-17T04:19:52.345Z,98539.91
2023-03-17T04:22:19.100Z,98542.03
2023-03-17T04:24:46.102Z,98538.72
2023-03-17T04:27:15.446Z,98536.88
2023-03-17T04:29:43.005Z,98533.00
2023-03-17T04:32:11.727Z,98541.47
2023-03-17T04:34:38.379Z,98544.16
2023-03-17T04:37:05.172Z,98555.63
2023-03-17T04:39:31.950Z,98554.34
2023-03-17T04:41:58.762Z,98549.81
2023-03-17T04:44:25.671Z,98549.00
2023-03-17T04:46:52.684Z,98551.50
2023-03-17T04:49:20.661Z,98543.69
2023-03-17T04:51:47.403Z,98551.03
2023-03-17T04:54:14.141Z,98543.22
2023-03-17T04:56:40.955Z,98543.41
2023-03-17T04:59:07.794Z,98559.41
2023-03-17T05:01:34.860Z,98557.00
2023-03-17T05:04:01.704Z,98557.38
2023-03-17T05:06:28.427Z,98559.84
2023-03-17T05:08:55.124Z,98555.72
2023-03-17T05:11:24.402Z,98564.81
2023-03-17T05:13:51.137Z,98559.00
2023-03-17T05:16:17.873Z,98562.72
2023-03-17T05:18:44.816Z,98556.53
2023-03-17T05:21:11.453Z,98571.69
2023-03-17T05:23:38.882Z,98569.41
2023-03-17T05:26:07.679Z,98580.72
2023-03-17T05:28:34.608Z,98577.03
2023-03-17T05:31:01.512Z,98583.38
2023-03-17T05:33:28.982Z,98575.81
2023-03-17T05:35:56.214Z,98584.03
2023-03-17T05:38:23.085Z,98585.31
2023-03-17T05:40:51.261Z,98587.69
2023-03-17T05:43:18.250Z,98585.03
2023-03-17T05:45:45.584Z,98588.72
2023-03-17T05:48:13.178Z,98592.19
2023-03-17T05:50:41.708Z,98586.22
2023-03-17T05:53:09.333Z,98585.41
2023-03-17T05:55:36.008Z,98590.34
2023-03-17T05:58:04.676Z,98595.34
2023-03-17T06:00:31.979Z,98596.97
2023-03-17T06:02:59.044Z,98603.50
2023-03-17T06:05:26.373Z,98604.41
2023-03-17T06:07:56.409Z,98604.06
2023-03-17T06:10:24.574Z,98604.88
2023-03-17T06:12:51.692Z,98608.38
2023-03-17T06:15:19.051Z,98609.84
2023-03-17T06:17:46.023Z,98606.34
2023-03-17T06:20:14.306Z,98613.88
2023-03-17T06:22:55.202Z,98622.53
2023-03-17T06:25:28.064Z,98617.56
2023-03-17T06:27:56.204Z,98612.06
2023-03-17T06:30:22.992Z,98620.22
2023-03-17T06:32:50.270Z,98620.41
2023-03-17T06:35:18.101Z,98627.56
2023-03-17T06:37:44.936Z,98633.72
2023-03-17T06:40:12.586Z,98636.78
2023-03-17T06:42:39.412Z,98646.78
2023-03-17T06:45:06.703Z,98638.78
2023-03-17T06:47:34.183Z,98644.66
2023-03-17T06:50:00.908Z,98645.31
2023-03-17T06:52:27.819Z,98647.13
2023-03-17T06:54:54.566Z,98653.09
2023-03-17T06:57:21.675Z,98641.78
2023-03-17T06:59:48.436Z,98650.66
2023-03-17T07:02:15.340Z,98648.03
2023-03-17T07:04:42.331Z,98659.63
2023-03-17T07:07:09.462Z,98658.00
2023-03-17T07:09:36.370Z,98662.13
2023-03-17T07:12:06.082Z,98662.06
2023-03-17T07:14:34.144Z,98669.84
2023-03-17T07:17:01.415Z,98667.47
2023-03-17T07:19:28.135Z,98672.72
2023-03-17T07:21:57.684Z,98673.53
2023-03-17T07:24:25.293Z,98674.44
2023-03-17T07:26:52.268Z,98680.44
2023-03-17T07:29:19.086Z,98679.38
2023-03-17T07:31:46.019Z,98681.81
2023-03-17T07:34:13.045Z,98684.31
2023-03-17T07:36:40.126Z,98684.88
2023-03-17T07:39:06.955Z,98694.63
2023-03-17T07:41:34.178Z,98699.03
2023-03-17T07:44:01.134Z,98694.63
2023-03-17T07:46:27.957Z,98692.06
2023-03-17T07:48:55.303Z,98695.91
2023-03-17T07:51:23.365Z,98699.34
2023-03-17T07:53:51.956Z,98705.28
2023-03-17T07:56:18.794Z,98708.34
2023-03-17T07:58:45.478Z,98720.50
2023-03-17T08:01:12.243Z,98715.06
2023-03-17T08:03:41.293Z,98724.41
2023-03-17T08:06:08.847Z,98715.75
2023-03-17T08:08:36.021Z,98716.06
2023-03-17T08:11:05.135Z,98716.91
2023-03-17T08:13:35.825Z,98728.94
2023-03-17T08:16:02.581Z,98730.00
2023-03-17T08:18:32.055Z,98733.22
2023-03-17T08:20:58.830Z,98738.84
2023-03-17T08:23:25.777Z,98734.25
2023-03-17T08:25:57.877Z,98735.31
2023-03-17T08:28:24.841Z,98730.81
2023-03-17T08:30:51.712Z,98740.19
2023-03-17T08:33:18.726Z,98738.41
2023-03-17T08:35:46.091Z,98742.41
2023-03-17T08:38:12.869Z,98736.44
2023-03-17T08:40:41.144Z,98740.81
2023-03-17T08:43:07.828Z,98742.84
2023-03-17T08:45:34.697Z,98746.00
2023-03-17T08:48:01.477Z,98753.28
2023-03-17T08:50:28.331Z,98758.44
2023-03-17T08:52:58.187Z,98753.53
2023-03-17T08:55:25.094Z,98752.47
2023-03-17T08:57:52.938Z,98759.66
2023-03-17T09:00:20.947Z,98755.41
2023-03-17T09:02:48.966Z,98761.69
2023-03-17T09:05:19.487Z,98768.78
2023-03-17T09:07:46.512Z,98769.59
2023-03-17T09:10:14.897Z,98772.84
2023-03-17T09:12:41.611Z,98776.63
2023-03-17T09:15:08.977Z,98772.91
2023-03-17T09:17:39.599Z,98771.00
2023-03-17T09:20:06.799Z,98777.69
2023-03-17T09:22:33.568Z,98779.59
2023-03-17T09:25:00.683Z,98786.53
2023-03-17T09:27:27.526Z,98786.97
2023-03-17T09:29:54.252Z,98796.00
2023-03-17T09:32:21.186Z,98797.16
2023-03-17T09:34:49.655Z,98799.72
2023-03-17T09:37:18.095Z,98808.88
2023-03-17T09:39:44.816Z,98808.88
2023-03-17T09:42:27.110Z,98817.09
2023-03-17T09:45:24.279Z,98816.28
2023-03-17T09:48:16.201Z,98818.66
2023-03-17T09:50:54.092Z,98817.06
2023-03-17T09:53:27.795Z,98809.50
2023-03-17T09:55:58.976Z,98813.63
2023-03-17T09:58:32.344Z,98815.94
2023-03-17T10:01:03.350Z,98817.56
2023-03-17T10:03:30.096Z,98815.69
2023-03-17T10:06:13.327Z,98815.84
2023-03-17T10:08:51.540Z,98821.81
2023-03-17T10:11:35.150Z,98822.66
2023-03-17T10:14:23.776Z,98827.78
2023-03-17T10:17:09.300Z,98830.56
2023-03-17T10:19:43.072Z,98833.44
2023-03-17T10:22:43.047Z,98840.06
2023-03-17T10:25:14.951Z,98838.75
2023-03-17T10:27:44.820Z,98842.53
2023-03-17T10:30:19.715Z,98840.06
2023-03-17T10:32:49.251Z,98845.47
2023-03-17T10:35:17.324Z,98836.81
2023-03-17T10:37:47.087Z,98841.75
2023-03-17T10:40:21.506Z,98834.72
2023-03-17T10:42:52.500Z,98832.22
2023-03-17T10:45:29.207Z,98840.28
2023-03-17T10:47:57.784Z,98847.13
2023-03-17T10:50:33.575Z,98849.59
2023-03-17T10:53:03.540Z,98846.91
2023-03-17T10:55:56.675Z,98850.22
2023-03-17T10:58:45.442Z,98862.53
2023-03-17T11:01:27.877Z,98858.78
2023-03-17T11:03:55.863Z,98859.88
2023-03-17T11:06:41.964Z,98867.72
2023-03-17T11:09:13.450Z,98868.19
2023-03-17T11:11:44.681Z,98884.91
2023-03-17T11:14:16.202Z,98893.00
2023-03-17T11:16:53.452Z,98879.16
2023-03-17T11:19:42.678Z,98890.31
2023-03-17T11:22:15.157Z,98888.03
2023-03-17T11:24:47.699Z,98883.69
2023-03-17T11:27:35.552Z,98890.72
2023-03-17T11:30:19.579Z,98898.38
2023-03-17T11:33:02.871Z,98897.75
2023-03-17T11:35:53.127Z,98897.75
2023-03-17T11:38:33.047Z,98902.06
2023-03-17T11:41:18.378Z,98904.16
2023-03-17T11:43:51.240Z,98895.00
2023-03-17T11:46:50.254Z,98898.00
2023-03-17T11:49:32.666Z,98891.78
2023-03-17T11:52:28.491Z,98899.56
2023-03-17T11:55:29.200Z,98903.69
2023-03-17T11:57:57.630Z,98898.09
2023-03-17T12:00:43.822Z,98901.53
2023-03-17T12:03:17.835Z,98906.75
2023-03-17T12:05:50.274Z,98906.72
2023-03-17T12:08:35.553Z,98919.44
2023-03-17T12:11:08.524Z,98917.38
2023-03-17T12:14:06.313Z,98922.09
2023-03-17T12:16:44.814Z,98926.47
2023-03-17T12:19:41.078Z,98933.91
2023-03-17T12:22:07.812Z,98946.72
2023-03-17T12:24:54.647Z,98939.47
2023-03-17T12:27:31.955Z,98940.91
2023-03-17T12:30:03.422Z,98952.69
2023-03-17T12:32:47.970Z,98939.63
2023-03-17T12:35:33.293Z,98938.84
2023-03-17T12:38:08.070Z,98940.53
2023-03-17T12:40:49.506Z,98942.16
2023-03-17T12:43:34.523Z,98944.41
2023-03-17T12:46:16.230Z,98944.38
2023-03-17T12:48:48.694Z,98953.22
2023-03-17T12:51:33.418Z,98951.84
2023-03-17T12:54:00.544Z,98955.38
2023-03-17T12:56:32.214Z,98956.66
2023-03-17T12:59:17.545Z,98957.88
2023-03-17T13:01:57.416Z,98952.50
2023-03-17T13:04:32.985Z,98965.31
2023-03-17T13:07:15.706Z,98956.88
2023-03-17T13:09:50.837Z,98952.50
2023-03-17T13:12:39.412Z,98954.59
2023-03-17T13:15:22.788Z,98947.56
2023-03-17T13:17:50.754Z,98956.25
2023-03-17T13:20:19.999Z,98957.50
2023-03-17T13:23:11.369Z,98962.44
2023-03-17T13:25:38.315Z,98964.72
2023-03-17T13:28:14.140Z,98960.97
2023-03-17T13:30:54.154Z,98956.03
2023-03-17T13:33:26.004Z,98961.16
2023-03-17T13:36:13.039Z,98957.25
2023-03-17T13:39:19.155Z,98954.19
2023-03-17T13:41:56.595Z,98949.66
2023-03-17T13:44:35.270Z,98952.94
2023-03-17T13:47:17.356Z,98952.09
2023-03-17T13:49:50.669Z,98950.00
2023-03-17T13:52:27.906Z,98946.94
2023-03-17T13:55:23.875Z,98945.28
2023-03-17T13:58:11.381Z,98947.97
2023-03-17T14:00:42.438Z,98944.25
2023-03-17T14:03:19.420Z,98946.31
2023-03-17T14:05:52.758Z,98941.75
2023-03-17T14:08:29.862Z,98946.28
2023-03-17T14:11:00.541Z,98943.78
2023-03-17T14:13:42.074Z,98950.00
2023-03-17T14:16:15.717Z,98938.78
2023-03-17T14:18:49.656Z,98934.69
2023-03-17T14:21:23.318Z,98936.78
2023-03-17T14:24:01.424Z,98941.34
2023-03-17T14:26:30.931Z,98945.69
2023-03-17T14:29:02.896Z,98954.56
2023-03-17T14:31:29.795Z,98944.47
2023-03-17T14:33:58.996Z,98950.25
2023-03-17T14:36:27.869Z,98955.44
2023-03-17T14:38:56.933Z,98946.75
2023-03-17T14:41:26.031Z,98949.00
2023-03-17T14:43:57.277Z,98959.34
2023-03-17T14:46:30.686Z,98958.09
2023-03-17T14:49:15.890Z,98947.13
2023-03-17T14:51:42.929Z,98952.09
2023-03-17T14:54:23.498Z,98957.06
2023-03-17T14:57:01.979Z,98959.75
2023-03-17T14:59:37.765Z,98959.75
2023-03-17T15:02:28.555Z,98961.00
2023-03-17T15:05:20.697Z,98964.50
2023-03-17T15:07:47.433Z,98966.97
2023-03-17T15:10:19.664Z,98970.72
2023-03-17T15:12:48.455Z,98966.16
2023-03-17T15:15:28.773Z,98964.91
2023-03-17T15:18:01.202Z,98967.56
2023-03-17T15:20:31.582Z,98971.50
2023-03-17T15:23:05.955Z,98975.63
2023-03-17T15:25:43.562Z,98970.94
2023-03-17T15:28:16.058Z,98972.50
2023-03-17T15:30:47.938Z,98973.53
2023-03-17T15:33:31.913Z,98979.03
2023-03-17T15:36:00.344Z,98987.03
2023-03-17T15:38:27.773Z,98990.28
2023-03-17T15:40:55.143Z,98991.28
2023-03-17T15:43:23.056Z,98999.22
2023-03-17T15:46:10.409Z,98992.66
2023-03-17T15:48:37.668Z,98994.53
2023-03-17T15:51:05.760Z,98998.84
2023-03-17T15:53:32.600Z,98997.28
2023-03-17T15:55:59.497Z,98997.09
2023-03-17T15:58:26.248Z,99003.75
2023-03-17T16:00:57.078Z,99000.72
2023-03-17T16:03:37.119Z,98992.69
2023-03-17T16:06:07.383Z,98998.66
2023-03-17T16:08:34.053Z,99002.00
2023-03-17T16:11:00.918Z,99005.94
2023-03-17T16:13:34.360Z,98996.81
2023-03-17T16:16:05.545Z,99006.91
2023-03-17T16:18:34.109Z,99014.94
2023-03-17T16:21:02.460Z,99017.19
2023-03-17T16:23:32.285Z,99017.84
2023-03-17T16:26:13.659Z,99017.59
2023-03-17T16:28:42.986Z,99026.22
2023-03-17T16:31:30.752Z,99027.44
2023-03-17T16:33:57.886Z,99028.25
2023-03-17T16:36:25.722Z,99026.31
2023-03-17T16:38:52.695Z,99024.66
2023-03-17T16:41:25.558Z,99029.75
2023-03-17T16:44:01.642Z,99035.38
2023-03-17T16:46:34.566Z,99033.84
2023-03-17T16:49:02.052Z,99041.38
2023-03-17T16:51:28.778Z,99039.31
2023-03-17T16:53:55.637Z,99041.22
2023-03-17T16:56:24.682Z,99047.28
2023-03-17T16:58:51.649Z,99055.41
2023-03-17T17:01:22.107Z,99049.63
2023-03-17T17:03:49.442Z,99058.72
2023-03-17T17:06:17.853Z,99063.47
2023-03-17T17:08:46.166Z,99067.88
2023-03-17T17:11:17.560Z,99065.88
2023-03-17T17:13:46.628Z,99060.03
2023-03-17T17:16:28.160Z,99067.50
2023-03-17T17:18:55.077Z,99066.97
2023-03-17T17:21:21.890Z,99076.19
2023-03-17T17:23:50.156Z,99092.63
2023-03-17T17:26:17.651Z,99088.91
2023-03-17T17:28:44.453Z,99089.94
2023-03-17T17:31:11.297Z,99096.94
2023-03-17T17:33:38.403Z,99100.56
2023-03-17T17:36:08.066Z,99106.88
2023-03-17T17:38:34.892Z,99110.06
2023-03-17T17:41:09.001Z,99122.00
2023-03-17T17:43:36.143Z,99130.13
2023-03-17T17:46:02.895Z,99137.06
2023-03-17T17:48:29.816Z,99140.53
2023-03-17T17:50:57.604Z,99155.25
2023-03-17T17:53:24.470Z,99146.34
2023-03-17T17:55:51.896Z,99165.31
2023-03-17T17:58:24.571Z,99165.50
2023-03-17T18:00:53.847Z,99167.16
2023-03-17T18:03:24.559Z,99165.31
2023-03-17T18:05:53.369Z,99164.66
2023-03-17T18:08:20.160Z,99164.69
2023-03-17T18:10:46.842Z,99176.72
2023-03-17T18:13:13.603Z,99178.16
2023-03-17T18:15:40.350Z,99187.34
2023-03-17T18:18:07.305Z,99184.84
2023-03-17T18:20:34.236Z,99185.19
2023-03-17T18:23:01.039Z,99191.19
2023-03-17T18:25:28.324Z,99196.53
2023-03-17T18:27:55.270Z,99196.28
2023-03-17T18:30:25.611Z,99199.16
2023-03-17T18:32:57.276Z,99200.50
2023-03-17T18:35:27.099Z,99198.50
2023-03-17T18:37:56.463Z,99200.53
2023-03-17T18:40:23.971Z,99200.19
2023-03-17T18:42:51.068Z,99201.53
2023-03-17T18:45:17.828Z,99205.56
2023-03-17T18:47:44.645Z,99207.56
2023-03-17T18:50:14.163Z,99212.53
2023-03-17T18:52:42.582Z,99217.06
2023-03-17T18:55:11.283Z,99217.19
2023-03-17T18:57:38.172Z,99211.88
2023-03-17T19:00:08.589Z,99208.84
2023-03-17T19:02:36.329Z,99217.03
2023-03-17T19:05:03.739Z,99218.56
2023-03-17T19:07:31.352Z,99218.25
2023-03-17T19:09:58.095Z,99220.91
2023-03-17T19:12:24.874Z,99226.25
2023-03-17T19:14:52.253Z,99230.59
2023-03-17T19:17:18.972Z,99231.25
2023-03-17T19:19:46.326Z,99235.25
2023-03-17T19:22:13.065Z,99239.56
2023-03-17T19:24:41.205Z,99234.91
2023-03-17T19:27:08.215Z,99230.91
2023-03-17T19:29:35.199Z,99242.91
2023-03-17T19:32:02.399Z,99243.25
2023-03-17T19:34:29.146Z,99253.22
2023-03-17T19:36:55.858Z,99251.25
2023-03-17T19:39:22.698Z,99245.56
2023-03-17T19:41:53.268Z,99243.41
2023-03-17T19:44:20.028Z,99238.41
2023-03-17T19:46:46.978Z,99237.56
2023-03-17T19:49:14.014Z,99242.75
2023-03-17T19:51:41.918Z,99247.91
2023-03-17T19:54:11.269Z,99247.25
2023-03-17T19:56:38.753Z,99253.56
2023-03-17T19:59:09.126Z,99256.22
2023-03-17T20:01:37.908Z,99252.91
2023-03-17T20:04:06.836Z,99252.56
2023-03-17T20:06:34.730Z,99248.41
2023-03-17T20:09:04.097Z,99245.22
2023-03-17T20:11:33.969Z,99258.88
2023-03-17T20:14:04.681Z,99257.41
2023-03-17T20:16:33.734Z,99256.06
2023-03-17T20:19:01.705Z,99253.88
2023-03-17T20:21:28.911Z,99259.53
2023-03-17T20:23:56.341Z,99263.88
2023-03-17T20:26:24.510Z,99262.06
2023-03-17T20:28:51.744Z,99265.53
2023-03-17T20:31:18.693Z,99264.84
2023-03-17T20:33:45.618Z,99269.88
2023-03-17T20:36:12.994Z,99276.66
2023-03-17T20:38:40.661Z,99278.16
2023-03-17T20:41:13.682Z,99283.16
2023-03-17T20:43:41.792Z,99287.84
2023-03-17T20:46:13.757Z,99288.19
2023-03-17T20:48:41.317Z,99295.88
2023-03-17T20:51:10.163Z,99295.53
2023-03-17T20:53:37.268Z,99299.16
2023-03-17T20:56:04.758Z,99293.34
2023-03-17T20:58:31.467Z,99304.50
2023-03-17T21:00:58.520Z,99297.50
2023-03-17T21:03:25.423Z,99293.84
2023-03-17T21:05:53.470Z,99297.00
2023-03-17T21:08:20.142Z,99298.16
2023-03-17T21:10:46.769Z,99293.97
2023-03-17T21:13:13.546Z,99305.47
2023-03-17T21:15:41.339Z,99307.31
2023-03-17T21:18:08.831Z,99307.16
2023-03-17T21:20:35.662Z,99315.63
2023-03-17T21:23:04.798Z,99314.63
2023-03-17T21:25:31.564Z,99313.97
2023-03-17T21:27:58.212Z,99316.47
2023-03-17T21:30:24.916Z,99322.81
2023-03-17T21:32:51.673Z,99317.97
2023-03-17T21:35:18.650Z,99320.31
2023-03-17T21:37:45.348Z,99326.09
2023-03-17T21:40:13.575Z,99326.78
2023-03-17T21:42:40.803Z,99323.63
2023-03-17T21:45:08.959Z,99338.13
2023-03-17T21:47:36.421Z,99334.13
2023-03-17T21:50:05.194Z,99343.75
2023-03-17T21:52:32.384Z,99337.97
2023-03-17T21:54:59.696Z,99337.44
2023-03-17T21:57:27.737Z,99335.63
2023-03-17T21:59:54.476Z,99339.97
2023-03-17T22:02:21.952Z,99332.94
2023-03-17T22:04:48.858Z,99333.59
2023-03-17T22:07:19.730Z,99338.94
2023-03-17T22:09:46.692Z,99337.16
2023-03-17T22:12:13.706Z,99338.28
2023-03-17T22:14:40.457Z,99344.56
2023-03-17T22:17:07.185Z,99343.00
2023-03-17T22:19:34.460Z,99343.59
2023-03-17T22:22:01.985Z,99349.78
2023-03-17T22:24:28.753Z,99347.59
2023-03-17T22:26:56.010Z,99345.78
2023-03-17T22:29:22.788Z,99347.59
2023-03-17T22:31:49.561Z,99347.41
2023-03-17T22:34:16.322Z,99353.38
2023-03-17T22:36:43.323Z,99348.59
2023-03-17T22:39:10.917Z,99350.75
2023-03-17T22:41:38.768Z,99358.72
2023-03-17T22:44:08.274Z,99350.38
2023-03-17T22:46:36.258Z,99353.69
2023-03-17T22:49:03.059Z,99355.38
2023-03-17T22:51:30.894Z,99355.06
2023-03-17T22:53:58.165Z,99347.09
2023-03-17T22:56:26.230Z,99353.59
2023-03-17T22:58:54.213Z,99354.53
2023-03-17T23:01:23.515Z,99353.03
2023-03-17T23:03:50.560Z,99352.06
2023-03-17T23:06:17.812Z,99360.50
2023-03-17T23:08:45.941Z,99357.22
2023-03-17T23:11:18.388Z,99357.38
2023-03-17T23:13:47.387Z,99361.25
2023-03-17T23:16:15.245Z,99364.41
2023-03-17T23:18:44.140Z,99368.13
2023-03-17T23:21:26.447Z,99377.06
2023-03-17T23:23:53.309Z,99373.03
2023-03-17T23:26:20.390Z,99371.81
2023-03-17T23:28:47.689Z,99376.94
2023-03-17T23:31:16.795Z,99374.63
2023-03-17T23:33:43.905Z,99377.53
2023-03-17T23:36:10.882Z,99374.78
2023-03-17T23:38:37.587Z,99380.09
2023-03-17T23:41:04.359Z,99375.34
2023-03-17T23:43:31.144Z,99383.59
2023-03-17T23:45:58.326Z,99381.06
2023-03-17T23:48:25.120Z,99379.50
2023-03-17T23:50:58.033Z,99379.66
2023-03-17T23:53:24.906Z,99380.53
2023-03-17T23:55:51.690Z,99374.69
2023-03-17T23:58:19.066Z,99376.34
